Time;durP1;ratioP1;P1;durP2;ratioP2;P2;SDS_P1;SDS_P2;PMS_P1;PMS_P2;Temp;Humidity;BMP_temperature;BMP_pressure;BME280_temperature;BME280_humidity;BME280_pressure;Samples;Min_cycle;Max_cycle;Signal;HPM_P1;HPM_P2
2022/03/12 00:02:19;;;;;;;9.00;6.18;;;;;;;;;;5057394;28;20553;-69
2022/03/12 00:04:45;;;;;;;8.70;6.25;;;;;;;;;;5057879;28;20536;-69
2022/03/12 00:07:11;;;;;;;9.35;5.72;;;;;;;;;;5041131;28;20044;-69
2022/03/12 00:09:37;;;;;;;9.68;6.25;;;;;;;;;;5056858;28;20543;-69
2022/03/12 00:12:04;;;;;;;9.50;5.70;;;;;;;;;;5057441;28;20445;-69
2022/03/12 00:14:33;;;;;;;13.20;5.70;;;;;;;;;;5057353;28;20119;-69
2022/03/12 00:16:59;;;;;;;10.43;5.95;;;;;;;;;;5057477;28;20052;-69
2022/03/12 00:19:25;;;;;;;8.45;6.13;;;;;;;;;;5057245;28;20473;-69
2022/03/12 00:21:52;;;;;;;9.25;5.60;;;;;;;;;;5057381;28;20078;-69
2022/03/12 00:24:18;;;;;;;9.38;5.72;;;;;;;;;;5075073;28;20059;-69
2022/03/12 00:26:45;;;;;;;9.27;5.13;;;;;;;;;;5056860;28;20040;-69
2022/03/12 00:29:15;;;;;;;8.55;5.70;;;;;;;;;;5057402;28;20052;-69
2022/03/12 00:31:42;;;;;;;10.07;5.75;;;;;;;;;;5056974;28;20044;-69
2022/03/12 00:34:09;;;;;;;8.52;5.30;;;;;;;;;;5056722;28;20041;-69
2022/03/12 00:36:35;;;;;;;9.52;5.75;;;;;;;;;;5056911;28;20412;-70
2022/03/12 00:39:01;;;;;;;10.25;6.22;;;;;;;;;;5053348;28;20229;-69
2022/03/12 00:41:28;;;;;;;8.55;5.45;;;;;;;;;;5054523;28;20049;-69
2022/03/12 00:43:55;;;;;;;10.68;5.40;;;;;;;;;;5037228;28;20045;-69
2022/03/12 00:46:22;;;;;;;10.57;5.88;;;;;;;;;;5036906;28;20044;-69
2022/03/12 00:48:48;;;;;;;8.93;5.40;;;;;;;;;;5053424;28;20044;-68
2022/03/12 00:51:14;;;;;;;10.95;5.63;;;;;;;;;;5053396;28;20045;-69
2022/03/12 00:53:41;;;;;;;8.45;5.65;;;;;;;;;;5053489;28;20084;-69
2022/03/12 00:56:08;;;;;;;9.90;5.32;;;;;;;;;;5053070;28;20123;-69
2022/03/12 00:58:37;;;;;;;8.73;5.65;;;;;;;;;;5053336;28;20208;-68
2022/03/12 01:01:04;;;;;;;10.32;6.28;;;;;;;;;;5052858;28;20040;-68
2022/03/12 01:03:30;;;;;;;7.85;5.65;;;;;;;;;;5053397;28;20367;-69
2022/03/12 01:06:01;;;;;;;10.65;5.60;;;;;;;;;;5052655;28;20041;-69
2022/03/12 01:08:28;;;;;;;10.80;6.22;;;;;;;;;;5054549;28;20040;-69
2022/03/12 01:10:56;;;;;;;8.73;5.78;;;;;;;;;;5054139;28;20128;-69
2022/03/12 01:13:22;;;;;;;10.70;5.90;;;;;;;;;;5053149;28;20059;-69
2022/03/12 01:15:49;;;;;;;9.85;5.80;;;;;;;;;;5052702;28;20036;-69
2022/03/12 01:18:19;;;;;;;10.00;5.90;;;;;;;;;;5052749;28;20103;-69
2022/03/12 01:20:45;;;;;;;10.48;5.53;;;;;;;;;;5053946;28;20060;-69
2022/03/12 01:23:13;;;;;;;9.05;5.70;;;;;;;;;;5054039;28;20402;-69
2022/03/12 01:25:40;;;;;;;10.05;5.90;;;;;;;;;;5052774;28;20486;-69
2022/03/12 01:28:07;;;;;;;8.88;6.00;;;;;;;;;;5053981;28;20489;-69
2022/03/12 01:30:34;;;;;;;12.10;5.93;;;;;;;;;;5052769;28;20458;-69
2022/03/12 01:33:00;;;;;;;8.65;5.45;;;;;;;;;;5052802;28;20098;-69
2022/03/12 01:35:27;;;;;;;8.63;5.35;;;;;;;;;;5053707;28;20516;-69
2022/03/12 01:37:53;;;;;;;12.35;5.75;;;;;;;;;;5052666;28;20427;-68
2022/03/12 01:40:19;;;;;;;11.23;6.05;;;;;;;;;;5071992;28;20483;-69
2022/03/12 01:42:46;;;;;;;8.85;5.55;;;;;;;;;;5055905;28;20384;-69
2022/03/12 01:45:13;;;;;;;7.32;5.32;;;;;;;;;;5055353;28;20044;-69
2022/03/12 01:47:40;;;;;;;7.38;5.40;;;;;;;;;;5055598;28;20366;-69
2022/03/12 01:50:06;;;;;;;10.23;5.80;;;;;;;;;;5055511;28;20055;-69
2022/03/12 01:52:32;;;;;;;11.90;6.38;;;;;;;;;;5055285;28;20055;-69
2022/03/12 01:54:59;;;;;;;10.65;5.78;;;;;;;;;;5055411;28;20119;-69
2022/03/12 01:57:25;;;;;;;8.85;5.50;;;;;;;;;;5055477;28;20044;-70
2022/03/12 01:59:51;;;;;;;8.90;5.72;;;;;;;;;;5055196;28;20049;-69
2022/03/12 02:02:17;;;;;;;9.40;5.60;;;;;;;;;;5055445;28;20404;-69
2022/03/12 02:04:52;;;;;;;9.25;6.18;;;;;;;;;;5055271;28;20036;-69
2022/03/12 02:07:18;;;;;;;7.70;5.55;;;;;;;;;;5054971;28;20052;-69
2022/03/12 02:09:46;;;;;;;9.25;6.00;;;;;;;;;;5054960;28;20374;-69
2022/03/12 02:12:12;;;;;;;7.85;5.25;;;;;;;;;;5055177;28;20140;-69
2022/03/12 02:14:38;;;;;;;8.18;5.45;;;;;;;;;;5055225;28;20045;-69
2022/03/12 02:17:08;;;;;;;10.75;6.50;;;;;;;;;;5054170;28;20519;-69
2022/03/12 02:19:34;;;;;;;10.93;5.75;;;;;;;;;;5072929;28;20462;-69
2022/03/12 02:22:03;;;;;;;7.93;5.68;;;;;;;;;;5055277;28;20086;-69
2022/03/12 02:24:30;;;;;;;8.50;5.40;;;;;;;;;;5054901;28;20040;-69
2022/03/12 02:26:57;;;;;;;8.25;5.72;;;;;;;;;;5054939;28;20058;-70
2022/03/12 02:29:24;;;;;;;12.05;6.18;;;;;;;;;;5072767;28;20408;-69
2022/03/12 02:31:53;;;;;;;9.63;5.90;;;;;;;;;;5054721;28;20457;-69
2022/03/12 02:34:23;;;;;;;10.88;6.20;;;;;;;;;;5055085;28;20047;-69
2022/03/12 02:36:56;;;;;;;10.05;6.15;;;;;;;;;;5054744;28;20040;-69
2022/03/12 02:39:24;;;;;;;11.73;6.30;;;;;;;;;;5054183;28;20057;-69
2022/03/12 02:41:50;;;;;;;8.43;5.57;;;;;;;;;;5054852;28;20102;-69
2022/03/12 02:44:21;;;;;;;9.60;6.30;;;;;;;;;;5054714;28;20153;-69
2022/03/12 02:47:08;;;;;;;9.60;6.35;;;;;;;;;;5054513;28;20503;-69
2022/03/12 02:49:39;;;;;;;11.93;6.10;;;;;;;;;;5054847;28;20044;-69
2022/03/12 02:52:05;;;;;;;8.95;5.65;;;;;;;;;;5054797;28;20090;-69
2022/03/12 02:54:31;;;;;;;10.57;6.15;;;;;;;;;;5054603;28;20131;-69
2022/03/12 02:57:03;;;;;;;8.75;6.18;;;;;;;;;;5054555;28;20052;-69
2022/03/12 02:59:30;;;;;;;10.32;5.93;;;;;;;;;;5054565;28;20055;-69
2022/03/12 03:02:00;;;;;;;9.70;6.30;;;;;;;;;;5054361;28;20503;-69
2022/03/12 03:04:26;;;;;;;12.25;5.93;;;;;;;;;;5054380;28;20052;-69
2022/03/12 03:06:52;;;;;;;11.25;6.38;;;;;;;;;;5054326;28;20043;-69
2022/03/12 03:09:18;;;;;;;10.00;6.57;;;;;;;;;;5054429;28;20047;-69
2022/03/12 03:11:44;;;;;;;10.95;6.78;;;;;;;;;;5054282;28;20040;-69
2022/03/12 03:14:12;;;;;;;8.68;5.68;;;;;;;;;;5072233;28;20041;-69
2022/03/12 03:16:39;;;;;;;10.40;6.25;;;;;;;;;;5054119;28;20051;-69
2022/03/12 03:19:05;;;;;;;12.68;6.07;;;;;;;;;;5072228;28;20047;-69
2022/03/12 03:21:32;;;;;;;11.27;6.00;;;;;;;;;;5037445;28;20060;-69
2022/03/12 03:24:00;;;;;;;11.48;6.45;;;;;;;;;;5054332;28;20075;-69
2022/03/12 03:26:38;;;;;;;9.73;6.13;;;;;;;;;;5054392;28;20275;-69
2022/03/12 03:29:08;;;;;;;9.07;6.07;;;;;;;;;;5056515;28;20033;-69
2022/03/12 03:31:35;;;;;;;9.23;6.05;;;;;;;;;;5058021;28;20041;-69
2022/03/12 03:34:01;;;;;;;9.88;6.32;;;;;;;;;;5058131;28;20506;-69
2022/03/12 03:36:27;;;;;;;13.32;6.78;;;;;;;;;;5057754;28;20040;-69
2022/03/12 03:38:53;;;;;;;13.68;6.13;;;;;;;;;;5041185;28;20053;-69
2022/03/12 03:41:19;;;;;;;8.77;5.90;;;;;;;;;;5057583;28;20060;-69
2022/03/12 03:43:46;;;;;;;10.13;6.40;;;;;;;;;;5057820;28;20044;-69
2022/03/12 03:46:16;;;;;;;12.30;6.53;;;;;;;;;;5058047;28;20109;-69
2022/03/12 03:48:42;;;;;;;10.70;5.82;;;;;;;;;;5075859;28;20040;-69
2022/03/12 03:51:08;;;;;;;12.18;7.10;;;;;;;;;;5057746;28;20051;-69
2022/03/12 03:53:35;;;;;;;11.73;6.57;;;;;;;;;;5075777;28;20036;-69
2022/03/12 03:56:01;;;;;;;11.30;7.25;;;;;;;;;;5057573;28;20044;-69
2022/03/12 03:58:32;;;;;;;10.70;6.38;;;;;;;;;;5057522;28;20048;-69
2022/03/12 04:00:59;;;;;;;9.10;6.38;;;;;;;;;;5057137;28;20059;-69
2022/03/12 04:03:29;;;;;;;11.23;5.95;;;;;;;;;;5057584;28;20574;-69
2022/03/12 04:05:55;;;;;;;10.07;6.70;;;;;;;;;;5057733;28;20392;-69
2022/03/12 04:08:21;;;;;;;12.27;6.60;;;;;;;;;;5075413;28;20033;-69
2022/03/12 04:10:47;;;;;;;11.23;6.72;;;;;;;;;;5075353;28;20052;-68
2022/03/12 04:13:16;;;;;;;10.27;6.15;;;;;;;;;;5057370;28;20046;-69
2022/03/12 04:15:42;;;;;;;10.82;6.53;;;;;;;;;;5075136;28;20042;-69
2022/03/12 04:18:09;;;;;;;12.45;7.07;;;;;;;;;;5057297;28;20044;-70
2022/03/12 04:20:36;;;;;;;13.52;7.28;;;;;;;;;;5056795;28;20045;-69
2022/03/12 04:23:02;;;;;;;10.90;6.53;;;;;;;;;;5057255;28;20481;-69
2022/03/12 04:25:31;;;;;;;11.35;7.18;;;;;;;;;;5057391;28;20140;-69
2022/03/12 04:28:00;;;;;;;11.65;7.43;;;;;;;;;;5075117;28;20111;-69
2022/03/12 04:30:28;;;;;;;12.75;7.47;;;;;;;;;;5057273;28;20095;-69
2022/03/12 04:32:55;;;;;;;12.88;7.47;;;;;;;;;;5057105;28;20044;-69
2022/03/12 04:35:21;;;;;;;11.65;7.13;;;;;;;;;;5056873;28;20071;-70
2022/03/12 04:37:48;;;;;;;11.93;7.22;;;;;;;;;;5056574;28;20084;-70
2022/03/12 04:40:19;;;;;;;13.68;7.32;;;;;;;;;;5073368;28;20057;-70
2022/03/12 04:42:45;;;;;;;10.00;7.18;;;;;;;;;;5074679;28;20412;-69
2022/03/12 04:45:12;;;;;;;11.82;7.78;;;;;;;;;;5056734;28;20045;-69
2022/03/12 04:47:41;;;;;;;12.25;7.82;;;;;;;;;;5056589;28;20048;-69
2022/03/12 04:50:08;;;;;;;11.63;6.88;;;;;;;;;;5040417;28;20051;-69
2022/03/12 04:52:35;;;;;;;12.90;7.35;;;;;;;;;;5056680;28;20044;-69
2022/03/12 04:55:07;;;;;;;10.43;7.20;;;;;;;;;;5056207;28;20516;-69
2022/03/12 04:57:34;;;;;;;10.93;7.60;;;;;;;;;;5056398;28;20048;-69
2022/03/12 05:00:03;;;;;;;11.27;7.22;;;;;;;;;;5056334;28;20044;-69
2022/03/12 05:02:29;;;;;;;12.35;7.15;;;;;;;;;;5074388;28;20076;-69
2022/03/12 05:04:55;;;;;;;14.52;7.80;;;;;;;;;;5039926;28;20041;-69
2022/03/12 05:07:23;;;;;;;10.82;7.35;;;;;;;;;;5056400;28;20047;-69
2022/03/12 05:09:49;;;;;;;14.05;7.80;;;;;;;;;;5073952;28;20048;-69
2022/03/12 05:12:15;;;;;;;13.07;7.10;;;;;;;;;;5056535;28;20114;-69
2022/03/12 05:14:44;;;;;;;12.25;7.88;;;;;;;;;;5056034;28;20048;-69
2022/03/12 05:17:13;;;;;;;11.82;7.68;;;;;;;;;;5056279;28;20462;-69
2022/03/12 05:19:40;;;;;;;9.77;6.75;;;;;;;;;;5056283;28;20044;-69
2022/03/12 05:22:07;;;;;;;10.75;7.13;;;;;;;;;;5056375;28;20392;-69
2022/03/12 05:24:34;;;;;;;11.73;7.75;;;;;;;;;;5056178;28;20434;-69
2022/03/12 05:27:01;;;;;;;11.70;7.38;;;;;;;;;;5056026;28;20135;-69
2022/03/12 05:29:27;;;;;;;14.95;7.63;;;;;;;;;;5055803;28;20041;-69
2022/03/12 05:31:53;;;;;;;13.98;7.72;;;;;;;;;;5039161;28;20041;-69
2022/03/12 05:34:24;;;;;;;13.27;8.02;;;;;;;;;;5074056;28;20033;-69
2022/03/12 05:36:50;;;;;;;10.73;7.05;;;;;;;;;;5055753;28;20079;-69
2022/03/12 05:39:17;;;;;;;9.77;6.85;;;;;;;;;;5055598;28;20056;-70
2022/03/12 05:41:44;;;;;;;11.60;8.20;;;;;;;;;;5055481;28;20059;-69
2022/03/12 05:44:16;;;;;;;10.65;7.35;;;;;;;;;;5073634;28;20044;-69
2022/03/12 05:46:43;;;;;;;12.13;7.70;;;;;;;;;;5055769;28;20072;-69
2022/03/12 05:49:09;;;;;;;13.98;8.27;;;;;;;;;;5055553;28;20032;-69
2022/03/12 05:51:36;;;;;;;12.80;7.47;;;;;;;;;;5073260;28;20090;-69
2022/03/12 05:54:02;;;;;;;15.73;7.70;;;;;;;;;;5055489;28;20118;-69
2022/03/12 05:56:28;;;;;;;13.32;8.38;;;;;;;;;;5055158;28;20055;-69
2022/03/12 05:58:54;;;;;;;10.63;7.47;;;;;;;;;;5073382;28;20167;-69
2022/03/12 06:01:20;;;;;;;13.90;7.85;;;;;;;;;;5055198;28;20124;-69
2022/03/12 06:03:47;;;;;;;13.27;7.63;;;;;;;;;;5073467;28;20036;-69
2022/03/12 06:06:14;;;;;;;13.35;7.70;;;;;;;;;;5055308;28;20393;-69
2022/03/12 06:08:40;;;;;;;14.15;7.88;;;;;;;;;;5054965;28;20491;-69
2022/03/12 06:11:07;;;;;;;11.35;7.90;;;;;;;;;;5055028;28;20048;-69
2022/03/12 06:13:33;;;;;;;11.48;7.88;;;;;;;;;;5055166;28;20498;-69
2022/03/12 06:16:00;;;;;;;11.30;7.70;;;;;;;;;;5038690;28;20416;-69
2022/03/12 06:18:27;;;;;;;12.98;7.97;;;;;;;;;;5072947;28;20070;-69
2022/03/12 06:20:53;;;;;;;12.15;8.07;;;;;;;;;;5054963;28;20134;-69
2022/03/12 06:23:19;;;;;;;13.80;7.80;;;;;;;;;;5055253;28;20455;-69
2022/03/12 06:25:46;;;;;;;13.18;8.10;;;;;;;;;;5054865;28;20044;-69
2022/03/12 06:28:12;;;;;;;13.27;7.97;;;;;;;;;;5054966;28;20127;-69
2022/03/12 06:30:40;;;;;;;14.50;7.90;;;;;;;;;;5055026;28;20129;-69
2022/03/12 06:33:06;;;;;;;12.30;7.63;;;;;;;;;;5054796;28;20519;-70
2022/03/12 06:35:32;;;;;;;13.40;7.60;;;;;;;;;;5054678;28;20083;-69
2022/03/12 06:37:58;;;;;;;12.38;7.13;;;;;;;;;;5072623;28;20557;-69
2022/03/12 06:40:28;;;;;;;12.90;8.25;;;;;;;;;;5054287;28;20106;-70
2022/03/12 06:42:56;;;;;;;12.75;7.97;;;;;;;;;;5054762;28;20037;-69
2022/03/12 06:45:24;;;;;;;12.60;8.60;;;;;;;;;;5054478;28;20040;-69
2022/03/12 06:47:50;;;;;;;12.90;7.88;;;;;;;;;;5072516;28;20055;-69
2022/03/12 06:50:21;;;;;;;13.00;7.82;;;;;;;;;;5054498;28;20049;-69
2022/03/12 06:52:48;;;;;;;13.27;7.82;;;;;;;;;;5054627;28;20040;-69
2022/03/12 06:55:15;;;;;;;11.43;7.72;;;;;;;;;;5054417;28;20057;-67
2022/03/12 06:57:41;;;;;;;13.30;8.38;;;;;;;;;;5072531;28;20094;-67
2022/03/12 07:00:12;;;;;;;14.60;8.23;;;;;;;;;;5054229;28;20044;-67
2022/03/12 07:02:38;;;;;;;14.57;8.45;;;;;;;;;;5072126;28;20115;-67
2022/03/12 07:05:05;;;;;;;12.10;8.43;;;;;;;;;;5072199;28;20039;-67
2022/03/12 07:07:31;;;;;;;14.60;8.30;;;;;;;;;;5072704;28;20033;-67
2022/03/12 07:09:58;;;;;;;14.10;8.52;;;;;;;;;;5071975;28;20053;-67
2022/03/12 07:12:24;;;;;;;13.30;8.30;;;;;;;;;;5072313;28;20081;-67
2022/03/12 07:14:50;;;;;;;14.35;8.50;;;;;;;;;;5072293;28;20037;-67
2022/03/12 07:17:17;;;;;;;11.70;8.07;;;;;;;;;;5054352;28;20104;-67
2022/03/12 07:19:43;;;;;;;12.23;8.73;;;;;;;;;;5072176;28;20393;-67
2022/03/12 07:22:09;;;;;;;15.02;8.48;;;;;;;;;;5054423;28;20101;-67
2022/03/12 07:24:35;;;;;;;15.32;8.43;;;;;;;;;;5072220;28;20544;-67
2022/03/12 07:27:01;;;;;;;13.15;8.13;;;;;;;;;;5072081;28;20032;-67
2022/03/12 07:29:31;;;;;;;11.90;8.13;;;;;;;;;;5072171;28;20399;-68
2022/03/12 07:31:57;;;;;;;16.27;8.45;;;;;;;;;;5053943;28;20098;-67
2022/03/12 07:34:24;;;;;;;12.85;8.32;;;;;;;;;;5072236;28;20029;-67
2022/03/12 07:36:50;;;;;;;12.85;8.55;;;;;;;;;;5054236;28;20115;-67
2022/03/12 07:39:16;;;;;;;14.68;8.48;;;;;;;;;;5071763;28;20063;-67
2022/03/12 07:41:42;;;;;;;14.50;8.70;;;;;;;;;;5053518;28;20049;-67
2022/03/12 07:44:08;;;;;;;12.13;7.80;;;;;;;;;;5054406;28;20127;-67
2022/03/12 07:46:35;;;;;;;13.05;8.15;;;;;;;;;;5072058;28;20037;-67
2022/03/12 07:49:03;;;;;;;16.30;8.70;;;;;;;;;;5072142;28;20423;-67
2022/03/12 07:51:29;;;;;;;12.40;7.88;;;;;;;;;;5071813;28;20041;-67
2022/03/12 07:53:55;;;;;;;13.25;7.97;;;;;;;;;;5054315;28;20048;-67
2022/03/12 07:56:21;;;;;;;11.73;8.35;;;;;;;;;;5071632;28;20044;-67
2022/03/12 07:58:47;;;;;;;11.80;7.57;;;;;;;;;;5071901;28;20044;-68
2022/03/12 08:01:13;;;;;;;14.15;8.65;;;;;;;;;;5071717;28;20041;-67
2022/03/12 08:03:39;;;;;;;16.77;8.90;;;;;;;;;;5053922;28;20045;-68
2022/03/12 08:06:08;;;;;;;11.45;8.77;;;;;;;;;;5054067;28;20036;-67
2022/03/12 08:08:34;;;;;;;14.10;8.73;;;;;;;;;;5053830;28;20055;-68
2022/03/12 08:13:45;;;;;;;15.07;8.88;;;;;;;;;;5053728;28;20529;-64
2022/03/12 08:16:15;;;;;;;14.85;9.57;;;;;;;;;;5055685;28;20044;-64
2022/03/12 08:18:42;;;;;;;14.48;9.23;;;;;;;;;;5075464;28;20052;-63
2022/03/12 08:21:08;;;;;;;12.77;8.98;;;;;;;;;;5075019;28;20116;-64
2022/03/12 08:23:35;;;;;;;14.57;9.13;;;;;;;;;;5057327;28;20041;-64
2022/03/12 08:26:01;;;;;;;14.32;9.02;;;;;;;;;;5075228;28;20064;-64
2022/03/12 08:28:28;;;;;;;12.57;8.80;;;;;;;;;;5075072;28;20047;-64
2022/03/12 08:30:54;;;;;;;13.30;8.90;;;;;;;;;;5057108;28;20123;-64
2022/03/12 08:33:20;;;;;;;14.20;8.65;;;;;;;;;;5075248;28;20115;-64
2022/03/12 08:35:48;;;;;;;13.18;8.25;;;;;;;;;;5056889;28;20044;-64
2022/03/12 08:38:14;;;;;;;14.25;8.98;;;;;;;;;;5056595;28;20048;-64
2022/03/12 08:40:40;;;;;;;16.80;9.73;;;;;;;;;;5056715;28;20067;-64
2022/03/12 08:43:06;;;;;;;13.07;8.25;;;;;;;;;;5074854;28;20037;-64
2022/03/12 08:45:32;;;;;;;11.68;8.38;;;;;;;;;;5056655;28;20052;-64
2022/03/12 08:47:58;;;;;;;13.15;8.40;;;;;;;;;;5057319;28;20059;-64
2022/03/12 08:50:25;;;;;;;12.88;8.73;;;;;;;;;;5056949;28;20045;-64
2022/03/12 08:52:52;;;;;;;12.77;8.77;;;;;;;;;;5057074;28;20102;-64
2022/03/12 08:55:18;;;;;;;13.10;8.93;;;;;;;;;;5074687;28;20381;-64
2022/03/12 08:57:44;;;;;;;12.18;8.60;;;;;;;;;;5074744;28;20438;-64
2022/03/12 09:00:12;;;;;;;13.18;9.23;;;;;;;;;;5056371;28;20055;-64
2022/03/12 09:02:39;;;;;;;15.07;8.80;;;;;;;;;;5056992;28;20048;-64
2022/03/12 09:05:06;;;;;;;18.17;9.07;;;;;;;;;;5074402;28;20503;-64
2022/03/12 09:07:32;;;;;;;15.18;8.60;;;;;;;;;;5056614;28;20044;-64
2022/03/12 09:09:58;;;;;;;13.25;8.57;;;;;;;;;;5056281;28;20044;-64
2022/03/12 09:12:25;;;;;;;12.43;8.10;;;;;;;;;;5074335;28;20044;-64
2022/03/12 09:14:51;;;;;;;13.30;8.68;;;;;;;;;;5056326;28;20512;-64
2022/03/12 09:17:18;;;;;;;11.05;8.10;;;;;;;;;;5056409;28;20040;-64
2022/03/12 09:19:44;;;;;;;14.13;8.73;;;;;;;;;;5039637;28;20503;-64
2022/03/12 09:22:10;;;;;;;11.70;8.50;;;;;;;;;;5074517;28;20040;-64
2022/03/12 09:24:38;;;;;;;13.05;8.55;;;;;;;;;;5056456;28;20044;-64
2022/03/12 09:27:05;;;;;;;10.85;8.23;;;;;;;;;;5073782;28;20050;-64
2022/03/12 09:29:32;;;;;;;12.88;8.23;;;;;;;;;;5056197;28;20162;-64
2022/03/12 09:31:59;;;;;;;11.48;8.38;;;;;;;;;;5074069;28;20076;-64
2022/03/12 09:34:25;;;;;;;10.93;8.05;;;;;;;;;;5056318;28;20083;-64
2022/03/12 09:36:51;;;;;;;11.90;7.38;;;;;;;;;;5055918;28;20047;-64
2022/03/12 09:39:17;;;;;;;13.82;8.43;;;;;;;;;;5055744;28;20083;-64
2022/03/12 09:41:44;;;;;;;10.95;7.75;;;;;;;;;;5073714;28;20116;-64
2022/03/12 09:44:10;;;;;;;12.75;8.38;;;;;;;;;;5073729;28;20115;-64
2022/03/12 09:46:37;;;;;;;9.52;7.28;;;;;;;;;;5055733;28;20068;-64
2022/03/12 09:49:04;;;;;;;12.00;7.28;;;;;;;;;;5055575;28;20036;-64
2022/03/12 09:51:31;;;;;;;10.10;6.78;;;;;;;;;;5073873;28;20045;-64
2022/03/12 09:53:58;;;;;;;12.95;7.18;;;;;;;;;;5055455;28;20045;-64
2022/03/12 09:56:24;;;;;;;8.93;6.75;;;;;;;;;;5055426;28;20055;-64
2022/03/12 09:58:50;;;;;;;11.82;7.22;;;;;;;;;;5055468;28;20526;-64
2022/03/12 10:01:17;;;;;;;10.35;7.28;;;;;;;;;;5073041;28;20044;-64
2022/03/12 10:03:43;;;;;;;11.38;7.35;;;;;;;;;;5055256;28;20481;-64
2022/03/12 10:06:10;;;;;;;10.25;7.22;;;;;;;;;;5073120;28;20041;-64
2022/03/12 10:08:37;;;;;;;12.23;7.95;;;;;;;;;;5055482;28;20066;-64
2022/03/12 10:11:04;;;;;;;11.95;7.30;;;;;;;;;;5054924;28;20041;-64
2022/03/12 10:13:30;;;;;;;11.95;7.32;;;;;;;;;;5055431;28;20051;-64
2022/03/12 10:15:57;;;;;;;11.15;7.57;;;;;;;;;;5054818;28;20060;-64
2022/03/12 10:18:23;;;;;;;9.88;7.03;;;;;;;;;;5055129;28;20048;-64
2022/03/12 10:20:49;;;;;;;9.88;6.97;;;;;;;;;;5054947;28;20082;-64
2022/03/12 10:23:15;;;;;;;10.52;7.25;;;;;;;;;;5073218;28;20481;-64
2022/03/12 10:25:41;;;;;;;12.15;7.50;;;;;;;;;;5054864;28;20130;-64
2022/03/12 10:28:07;;;;;;;12.68;7.60;;;;;;;;;;5055008;28;20532;-64
2022/03/12 10:30:34;;;;;;;9.68;7.22;;;;;;;;;;5054971;28;20048;-64
2022/03/12 10:33:01;;;;;;;10.20;7.60;;;;;;;;;;5072638;28;20082;-64
2022/03/12 10:35:32;;;;;;;11.20;7.55;;;;;;;;;;5054741;28;20481;-64
2022/03/12 10:38:00;;;;;;;10.23;7.55;;;;;;;;;;5053755;28;20432;-64
2022/03/12 10:40:27;;;;;;;10.07;7.35;;;;;;;;;;5053992;28;20570;-64
2022/03/12 10:42:59;;;;;;;10.07;7.20;;;;;;;;;;5054481;28;20052;-64
2022/03/12 10:45:27;;;;;;;13.00;7.10;;;;;;;;;;5054521;28;20041;-64
2022/03/12 10:47:56;;;;;;;14.45;8.07;;;;;;;;;;5054392;28;20047;-64
2022/03/12 10:50:27;;;;;;;9.45;7.18;;;;;;;;;;5072437;28;20569;-64
2022/03/12 10:52:54;;;;;;;12.13;7.68;;;;;;;;;;5055011;28;20053;-64
2022/03/12 10:55:26;;;;;;;10.18;7.00;;;;;;;;;;5054418;28;20052;-64
2022/03/12 10:57:56;;;;;;;8.93;6.13;;;;;;;;;;5072615;28;20396;-64
2022/03/12 11:00:22;;;;;;;11.43;7.15;;;;;;;;;;5054347;28;20052;-64
2022/03/12 11:02:57;;;;;;;12.10;7.50;;;;;;;;;;5072488;28;20048;-64
2022/03/12 11:05:34;;;;;;;10.13;6.90;;;;;;;;;;5054195;28;20049;-64
2022/03/12 11:08:18;;;;;;;10.77;7.05;;;;;;;;;;5072295;28;20044;-64
2022/03/12 11:11:00;;;;;;;9.43;6.90;;;;;;;;;;5054606;28;20047;-64
2022/03/12 11:13:40;;;;;;;11.82;6.72;;;;;;;;;;5072582;28;20040;-64
2022/03/12 11:16:06;;;;;;;10.15;6.30;;;;;;;;;;5054485;28;20083;-64
2022/03/12 11:18:33;;;;;;;9.65;7.10;;;;;;;;;;5072538;28;20045;-64
2022/03/12 11:20:59;;;;;;;10.27;7.00;;;;;;;;;;5053924;28;20049;-64
2022/03/12 11:23:27;;;;;;;11.38;7.13;;;;;;;;;;5054095;28;20051;-64
2022/03/12 11:25:58;;;;;;;9.73;6.60;;;;;;;;;;5053965;28;20150;-64
2022/03/12 11:28:24;;;;;;;9.45;6.35;;;;;;;;;;5054267;28;20049;-64
2022/03/12 11:30:51;;;;;;;9.55;6.40;;;;;;;;;;5072346;28;20068;-64
2022/03/12 11:33:18;;;;;;;11.05;6.65;;;;;;;;;;5072152;28;20041;-64
2022/03/12 11:35:45;;;;;;;9.82;6.78;;;;;;;;;;5054037;28;20052;-64
2022/03/12 11:38:22;;;;;;;8.85;6.30;;;;;;;;;;5037658;28;20083;-64
2022/03/12 11:41:08;;;;;;;9.77;6.50;;;;;;;;;;5072057;28;20531;-64
2022/03/12 11:43:38;;;;;;;10.25;6.57;;;;;;;;;;5054337;28;20080;-64
2022/03/12 11:46:06;;;;;;;9.43;6.53;;;;;;;;;;5071990;28;20484;-64
2022/03/12 11:48:34;;;;;;;9.73;6.88;;;;;;;;;;5072138;28;20083;-64
2022/03/12 11:51:04;;;;;;;9.52;6.55;;;;;;;;;;5057884;28;20492;-64
2022/03/12 11:53:39;;;;;;;9.45;6.10;;;;;;;;;;5075846;28;20055;-64
2022/03/12 11:56:07;;;;;;;8.77;6.57;;;;;;;;;;5075605;28;20548;-64
2022/03/12 11:58:34;;;;;;;10.43;5.97;;;;;;;;;;5057799;28;20102;-64
2022/03/12 12:01:00;;;;;;;9.95;6.25;;;;;;;;;;5075609;28;20131;-64
2022/03/12 12:03:26;;;;;;;8.73;5.65;;;;;;;;;;5057656;28;20036;-64
2022/03/12 12:05:55;;;;;;;9.00;5.57;;;;;;;;;;5057754;28;20068;-64
2022/03/12 12:08:21;;;;;;;7.78;5.60;;;;;;;;;;5057352;28;20044;-64
2022/03/12 12:10:47;;;;;;;13.73;6.28;;;;;;;;;;5057295;28;20048;-64
2022/03/12 12:13:14;;;;;;;13.98;6.15;;;;;;;;;;5057643;28;20044;-64
2022/03/12 12:15:41;;;;;;;7.88;5.88;;;;;;;;;;5075159;28;20040;-64
2022/03/12 12:18:08;;;;;;;9.80;5.90;;;;;;;;;;5057299;28;20126;-64
2022/03/12 12:20:35;;;;;;;7.85;5.78;;;;;;;;;;5075429;28;20089;-64
2022/03/12 12:23:03;;;;;;;8.50;5.90;;;;;;;;;;5075212;28;20515;-64
2022/03/12 12:25:36;;;;;;;11.52;5.93;;;;;;;;;;5057411;28;20392;-64
2022/03/12 12:28:17;;;;;;;10.63;6.32;;;;;;;;;;5056929;28;20115;-64
2022/03/12 12:30:44;;;;;;;7.97;5.70;;;;;;;;;;5056895;28;20040;-64
2022/03/12 12:33:17;;;;;;;9.85;6.00;;;;;;;;;;5057101;28;20044;-64
2022/03/12 12:35:45;;;;;;;8.10;5.43;;;;;;;;;;5075149;28;20079;-64
2022/03/12 12:38:11;;;;;;;8.40;5.65;;;;;;;;;;5057264;28;20113;-64
2022/03/12 12:40:48;;;;;;;9.85;5.75;;;;;;;;;;5074443;28;20131;-64
2022/03/12 12:43:18;;;;;;;9.43;5.75;;;;;;;;;;5074830;28;20374;-64
2022/03/12 12:45:53;;;;;;;11.02;5.68;;;;;;;;;;5056986;28;20041;-64
2022/03/12 12:48:27;;;;;;;9.95;6.03;;;;;;;;;;5056588;28;20072;-64
2022/03/12 12:51:01;;;;;;;8.27;5.30;;;;;;;;;;5074627;28;20044;-64
2022/03/12 12:53:31;;;;;;;9.85;5.35;;;;;;;;;;5056752;28;20041;-64
2022/03/12 12:56:17;;;;;;;7.50;5.28;;;;;;;;;;5056879;28;20048;-64
2022/03/12 12:58:53;;;;;;;9.32;5.03;;;;;;;;;;5056891;28;20091;-64
2022/03/12 13:01:20;;;;;;;9.45;5.40;;;;;;;;;;5073532;28;20496;-64
2022/03/12 13:03:47;;;;;;;8.38;5.10;;;;;;;;;;5056938;28;20044;-64
2022/03/12 13:06:14;;;;;;;10.20;5.78;;;;;;;;;;5074388;28;20481;-64
2022/03/12 13:08:44;;;;;;;9.13;5.18;;;;;;;;;;5056378;28;20032;-64
2022/03/12 13:11:29;;;;;;;9.95;5.00;;;;;;;;;;5056175;28;20048;-64
2022/03/12 13:13:57;;;;;;;7.20;5.28;;;;;;;;;;5074521;28;20115;-64
2022/03/12 13:16:24;;;;;;;7.95;5.18;;;;;;;;;;5056017;28;20131;-64
2022/03/12 13:18:50;;;;;;;7.80;4.82;;;;;;;;;;5056589;28;20437;-64
2022/03/12 13:21:30;;;;;;;8.10;5.45;;;;;;;;;;5056169;28;20393;-64
2022/03/12 13:23:57;;;;;;;7.28;4.88;;;;;;;;;;5055949;28;20070;-64
2022/03/12 13:26:26;;;;;;;10.32;4.72;;;;;;;;;;5056109;28;20388;-64
2022/03/12 13:28:53;;;;;;;10.45;4.70;;;;;;;;;;5074003;28;20049;-64
2022/03/12 13:31:20;;;;;;;7.45;4.72;;;;;;;;;;5055878;28;20048;-64
2022/03/12 13:33:47;;;;;;;7.18;4.63;;;;;;;;;;5055944;28;20055;-64
2022/03/12 13:36:24;;;;;;;6.68;4.72;;;;;;;;;;5056100;28;20115;-64
2022/03/12 13:38:52;;;;;;;8.18;4.90;;;;;;;;;;5055796;28;20056;-64
2022/03/12 13:41:18;;;;;;;7.75;4.57;;;;;;;;;;5055633;28;20425;-64
2022/03/12 13:43:45;;;;;;;9.70;4.70;;;;;;;;;;5055986;28;20366;-64
2022/03/12 13:46:12;;;;;;;10.93;4.85;;;;;;;;;;5073493;28;20036;-64
2022/03/12 13:48:39;;;;;;;7.72;4.97;;;;;;;;;;5073803;28;20040;-64
2022/03/12 13:51:05;;;;;;;8.13;4.88;;;;;;;;;;5055434;28;20041;-64
2022/03/12 13:53:31;;;;;;;8.45;4.18;;;;;;;;;;5055233;28;20051;-64
2022/03/12 13:56:16;;;;;;;8.13;4.15;;;;;;;;;;5055782;28;20078;-64
2022/03/12 13:58:42;;;;;;;5.80;3.67;;;;;;;;;;5073383;28;20118;-64
2022/03/12 14:01:09;;;;;;;8.98;4.50;;;;;;;;;;5055149;28;20083;-64
2022/03/12 14:03:47;;;;;;;7.70;4.00;;;;;;;;;;5073226;28;20032;-64
2022/03/12 14:06:30;;;;;;;9.98;4.82;;;;;;;;;;5055447;28;20389;-64
2022/03/12 14:08:57;;;;;;;8.32;4.55;;;;;;;;;;5055206;28;20055;-64
2022/03/12 14:11:36;;;;;;;7.78;5.40;;;;;;;;;;5055006;28;20504;-64
2022/03/12 14:14:04;;;;;;;8.63;5.53;;;;;;;;;;5055127;28;20551;-64
2022/03/12 14:16:31;;;;;;;10.90;6.05;;;;;;;;;;5055000;28;20044;-64
2022/03/12 14:19:00;;;;;;;10.43;5.47;;;;;;;;;;5055311;28;20076;-64
2022/03/12 14:21:37;;;;;;;8.45;5.80;;;;;;;;;;5072794;28;20049;-64
2022/03/12 14:24:34;;;;;;;8.93;5.53;;;;;;;;;;5072907;28;20036;-64
2022/03/12 14:27:01;;;;;;;13.98;6.30;;;;;;;;;;5035735;28;20132;-64
2022/03/12 14:29:28;;;;;;;10.88;6.00;;;;;;;;;;5055056;28;20113;-64
2022/03/12 14:31:56;;;;;;;10.25;6.05;;;;;;;;;;5072686;28;20043;-64
2022/03/12 14:34:23;;;;;;;9.07;5.90;;;;;;;;;;5072962;28;20377;-64
2022/03/12 14:36:49;;;;;;;9.32;6.03;;;;;;;;;;5072724;28;20399;-64
2022/03/12 14:39:16;;;;;;;8.30;5.10;;;;;;;;;;5037868;28;20052;-64
2022/03/12 14:41:48;;;;;;;8.57;5.35;;;;;;;;;;5054576;28;20462;-64